ZYTX/SHE METAR and TAF weather

Enter ICAO airport designator
Station Type Date Time Source
ZYTX METAR 2019/02/21 16:30 UTC NOAA

ZYTX 211630Z VRB01MPS CAVOK M07/M11 Q1024 NOSIG


Station Type Date Time Source
ZYTX Decoded METAR 2019/02/21 16:30 UTC NOAA

Shenyang / Taokian, China (ZYTX) 41-48N 123-24E
Feb 21, 2019 - 11:30 AM EST / 2019.02.21 1630 UTC
Wind: Variable at 2 MPH (2 KT):0
Visibility: greater than 7 mile(s):0
Temperature: 19 F (-7 C)
Dew Point: 12 F (-11 C)
Relative Humidity: 73%
Pressure (altimeter): 30.24 in. Hg (1024 hPa)
ob: ZYTX 211630Z VRB01MPS CAVOK M07/M11 Q1024 NOSIG
cycle: 16

Station Type Date Time Source
ZYTX TAF 2019/02/21 18:03 UTC NOAA

TAF ZYTX 211450Z 2118/2218 20003MPS 6000 NSC TX08/2206Z TNM07/21Z
BECMG 2201/2202 33004MPS CAVOK


Example: see airport list